createdAt,value
2023-04-02T00:02:23.824Z,10.02
2023-04-02T00:05:19.634Z,10.35
2023-04-02T00:07:53.065Z,9.13
2023-04-02T00:10:32.975Z,10.00
2023-04-02T00:13:31.241Z,8.10
2023-04-02T00:16:00.399Z,8.45
2023-04-02T00:18:27.814Z,8.77
2023-04-02T00:21:17.148Z,7.57
2023-04-02T00:23:44.430Z,7.53
2023-04-02T00:26:28.795Z,6.95
2023-04-02T00:28:55.734Z,6.55
2023-04-02T00:31:23.319Z,6.35
2023-04-02T00:33:50.899Z,6.53
2023-04-02T00:36:20.326Z,6.35
2023-04-02T00:38:48.816Z,6.25
2023-04-02T00:41:24.301Z,5.50
2023-04-02T00:43:52.699Z,5.45
2023-04-02T00:46:30.218Z,6.05
2023-04-02T00:49:09.812Z,5.68
2023-04-02T00:51:41.866Z,5.97
2023-04-02T00:54:16.136Z,5.78
2023-04-02T00:56:46.235Z,6.53
2023-04-02T00:59:30.401Z,6.40
2023-04-02T01:02:18.552Z,6.55
2023-04-02T01:05:14.959Z,6.28
2023-04-02T01:08:00.433Z,7.93
2023-04-02T01:10:42.699Z,8.35
2023-04-02T01:13:35.949Z,8.20
2023-04-02T01:16:32.233Z,9.50
2023-04-02T01:19:35.602Z,8.38
2023-04-02T01:22:14.513Z,8.90
2023-04-02T01:24:44.187Z,9.10
2023-04-02T01:27:24.797Z,10.18
2023-04-02T01:30:00.600Z,9.25
2023-04-02T01:32:30.109Z,9.55
2023-04-02T01:34:58.288Z,10.02
2023-04-02T01:37:37.382Z,9.85
2023-04-02T01:40:27.398Z,9.50
2023-04-02T01:43:14.048Z,9.77
2023-04-02T01:45:41.400Z,10.32
2023-04-02T01:48:19.994Z,10.00
2023-04-02T01:50:49.899Z,9.75
2023-04-02T01:53:19.063Z,10.70
2023-04-02T01:55:55.242Z,10.48
2023-04-02T01:58:25.670Z,9.23
2023-04-02T02:00:55.802Z,9.52
2023-04-02T02:03:23.303Z,9.23
2023-04-02T02:05:51.144Z,9.77
2023-04-02T02:08:40.820Z,8.50
2023-04-02T02:11:11.895Z,7.82
2023-04-02T02:16:12.798Z,7.43
2023-04-02T02:18:39.857Z,7.63
2023-04-02T02:21:10.298Z,8.23
2023-04-02T02:23:37.420Z,8.15
2023-04-02T02:26:06.752Z,8.43
2023-04-02T02:28:40.266Z,7.93
2023-04-02T02:31:19.659Z,8.23
2023-04-02T02:33:51.196Z,8.75
2023-04-02T02:36:40.169Z,8.60
2023-04-02T02:39:29.747Z,8.90
2023-04-02T02:42:18.866Z,9.57
2023-04-02T02:44:49.320Z,9.73
2023-04-02T02:47:25.110Z,8.85
2023-04-02T02:49:59.119Z,9.45
2023-04-02T02:52:30.944Z,9.32
2023-04-02T02:55:04.927Z,8.52
2023-04-02T02:57:43.436Z,9.52
2023-04-02T03:00:15.996Z,9.70
2023-04-02T03:02:44.226Z,9.27
2023-04-02T03:05:22.136Z,10.60
2023-04-02T03:07:55.510Z,10.85
2023-04-02T03:10:56.926Z,11.98
2023-04-02T03:13:32.875Z,12.80
2023-04-02T03:16:22.700Z,12.52
2023-04-02T03:19:02.740Z,12.43
2023-04-02T03:21:42.684Z,11.88
2023-04-02T03:24:16.105Z,11.63
2023-04-02T03:26:49.841Z,11.60
2023-04-02T03:29:22.680Z,11.27
2023-04-02T03:31:56.457Z,11.38
2023-04-02T03:34:35.369Z,12.80
2023-04-02T03:37:11.009Z,12.27
2023-04-02T03:39:46.953Z,13.20
2023-04-02T03:42:27.454Z,12.23
2023-04-02T03:45:02.204Z,12.98
2023-04-02T03:47:38.800Z,13.32
2023-04-02T03:50:05.738Z,13.50
2023-04-02T03:52:36.998Z,12.98
2023-04-02T03:55:15.961Z,11.95
2023-04-02T03:58:01.796Z,12.65
2023-04-02T04:00:42.476Z,10.38
2023-04-02T04:03:16.343Z,11.02
2023-04-02T04:05:51.835Z,10.38
2023-04-02T04:08:23.700Z,10.45
2023-04-02T04:10:57.244Z,8.38
2023-04-02T04:13:36.379Z,8.90
2023-04-02T04:16:08.224Z,8.85
2023-04-02T04:18:43.812Z,8.70
2023-04-02T04:21:37.755Z,9.15
2023-04-02T04:24:20.281Z,9.57
2023-04-02T04:27:04.109Z,8.55
2023-04-02T04:30:10.467Z,8.43
2023-04-02T04:32:50.092Z,9.63
2023-04-02T04:35:21.570Z,8.27
2023-04-02T04:37:53.647Z,8.98
2023-04-02T04:40:27.185Z,9.85
2023-04-02T04:42:58.218Z,10.15
2023-04-02T04:45:31.186Z,11.13
2023-04-02T04:48:02.691Z,11.88
2023-04-02T04:50:38.573Z,12.77
2023-04-02T04:53:08.453Z,13.30
2023-04-02T04:55:39.647Z,14.07
2023-04-02T04:58:35.292Z,13.57
2023-04-02T05:01:13.583Z,13.40
2023-04-02T05:03:59.787Z,12.93
2023-04-02T05:06:51.888Z,12.45
2023-04-02T05:09:47.471Z,12.02
2023-04-02T05:12:37.671Z,12.70
2023-04-02T05:15:35.554Z,12.30
2023-04-02T05:18:21.021Z,12.13
2023-04-02T05:20:56.798Z,12.07
2023-04-02T05:23:30.678Z,12.00
2023-04-02T05:26:09.721Z,12.00
2023-04-02T05:28:43.479Z,11.70
2023-04-02T05:31:40.406Z,11.88
2023-04-02T05:34:08.015Z,11.75
2023-04-02T05:36:35.424Z,11.93
2023-04-02T05:39:02.467Z,11.20
2023-04-02T05:41:31.558Z,10.07
2023-04-02T05:44:20.582Z,10.55
2023-04-02T05:47:14.234Z,10.68
2023-04-02T05:49:52.180Z,11.25
2023-04-02T05:52:29.793Z,11.20
2023-04-02T05:55:13.336Z,10.23
2023-04-02T05:58:33.898Z,10.73
2023-04-02T06:01:20.969Z,10.07
2023-04-02T06:04:02.654Z,10.50
2023-04-02T06:07:05.165Z,9.77
2023-04-02T06:09:50.575Z,9.90
2023-04-02T06:12:39.521Z,9.82
2023-04-02T06:15:12.676Z,10.15
2023-04-02T06:17:58.529Z,10.13
2023-04-02T06:20:26.240Z,9.45
2023-04-02T06:23:17.632Z,10.02
2023-04-02T06:25:54.023Z,9.68
2023-04-02T06:28:51.033Z,10.50
2023-04-02T06:31:24.022Z,10.77
2023-04-02T06:33:52.456Z,10.45
2023-04-02T06:36:20.800Z,9.77
2023-04-02T06:38:49.180Z,11.35
2023-04-02T06:41:22.132Z,10.07
2023-04-02T06:44:16.556Z,10.50
2023-04-02T06:46:54.064Z,10.90
2023-04-02T06:49:40.090Z,10.40
2023-04-02T06:52:18.344Z,10.00
2023-04-02T06:54:45.447Z,9.98
2023-04-02T06:57:13.689Z,10.93
2023-04-02T06:59:40.924Z,10.98
2023-04-02T07:02:30.838Z,10.00
2023-04-02T07:05:05.095Z,10.88
2023-04-02T07:07:32.063Z,10.90
2023-04-02T07:10:00.473Z,12.10
2023-04-02T07:12:27.723Z,11.77
2023-04-02T07:14:54.611Z,11.18
2023-04-02T07:17:22.191Z,12.40
2023-04-02T07:19:49.762Z,11.13
2023-04-02T07:22:18.508Z,12.15
2023-04-02T07:24:46.256Z,10.48
2023-04-02T07:27:16.478Z,9.25
2023-04-02T07:29:43.438Z,9.05
2023-04-02T07:32:14.160Z,8.73
2023-04-02T07:34:41.836Z,7.95
2023-04-02T07:37:14.434Z,7.70
2023-04-02T07:39:41.376Z,7.15
2023-04-02T07:42:08.274Z,6.78
2023-04-02T07:44:35.162Z,6.75
2023-04-02T07:47:02.176Z,7.05
2023-04-02T07:49:29.031Z,6.40
2023-04-02T07:51:55.900Z,6.60
2023-04-02T07:54:22.785Z,6.85
2023-04-02T07:56:49.703Z,6.53
2023-04-02T07:59:16.653Z,6.68
2023-04-02T08:01:43.784Z,6.55
2023-04-02T08:04:21.882Z,6.80
2023-04-02T08:06:50.406Z,6.82
2023-04-02T08:09:18.433Z,6.38
2023-04-02T08:11:46.759Z,6.22
2023-04-02T08:14:14.120Z,7.45
2023-04-02T08:16:56.002Z,7.00
2023-04-02T08:19:23.250Z,7.65
2023-04-02T08:21:51.722Z,7.78
2023-04-02T08:24:19.679Z,7.60
2023-04-02T08:26:47.814Z,8.07
2023-04-02T08:29:15.065Z,9.98
2023-04-02T08:31:42.302Z,8.32
2023-04-02T08:34:09.742Z,8.15
2023-04-02T08:36:39.202Z,8.20
2023-04-02T08:39:11.706Z,8.10
2023-04-02T08:41:47.149Z,8.13
2023-04-02T08:44:20.123Z,7.55
2023-04-02T08:46:46.976Z,9.40
2023-04-02T08:49:17.912Z,8.75
2023-04-02T08:51:46.303Z,7.55
2023-04-02T08:54:27.377Z,7.75
2023-04-02T08:57:07.845Z,7.18
2023-04-02T08:59:45.948Z,8.13
2023-04-02T09:02:22.170Z,8.48
2023-04-02T09:04:50.028Z,8.75
2023-04-02T09:07:18.143Z,7.55
2023-04-02T09:09:51.108Z,8.65
2023-04-02T09:12:22.256Z,8.30
2023-04-02T09:15:10.857Z,7.95
2023-04-02T09:17:53.077Z,7.68
2023-04-02T09:20:28.751Z,8.45
2023-04-02T09:22:56.961Z,7.93
2023-04-02T09:25:33.533Z,8.10
2023-04-02T09:28:05.142Z,7.75
2023-04-02T09:30:32.344Z,7.63
2023-04-02T09:33:09.481Z,7.68
2023-04-02T09:35:54.751Z,7.57
2023-04-02T09:38:30.960Z,6.88
2023-04-02T09:41:19.104Z,6.80
2023-04-02T09:43:46.620Z,6.55
2023-04-02T09:46:13.539Z,6.57
2023-04-02T09:49:00.906Z,6.57
2023-04-02T09:51:34.342Z,6.57
2023-04-02T09:54:04.540Z,6.00
2023-04-02T09:56:36.163Z,5.93
2023-04-02T09:59:15.359Z,6.72
2023-04-02T10:02:04.480Z,5.70
2023-04-02T10:04:45.446Z,5.90
2023-04-02T10:07:37.812Z,6.03
2023-04-02T10:10:28.895Z,5.68
2023-04-02T10:13:30.088Z,6.47
2023-04-02T10:16:03.536Z,5.65
2023-04-02T10:18:40.116Z,5.10
2023-04-02T10:21:10.375Z,5.35
2023-04-02T10:23:37.202Z,5.10
2023-04-02T10:26:31.895Z,6.00
2023-04-02T10:29:12.806Z,5.28
2023-04-02T10:31:58.359Z,5.70
2023-04-02T10:34:43.891Z,5.55
2023-04-02T10:37:37.865Z,6.38
2023-04-02T10:40:12.356Z,5.85
2023-04-02T10:42:53.572Z,5.35
2023-04-02T10:45:36.783Z,5.38
2023-04-02T10:48:30.454Z,4.78
2023-04-02T10:51:19.196Z,5.30
2023-04-02T10:54:17.442Z,4.72
2023-04-02T10:56:51.114Z,4.53
2023-04-02T10:59:30.103Z,4.30
2023-04-02T11:02:01.724Z,4.05
2023-04-02T11:04:41.759Z,4.32
2023-04-02T11:07:18.142Z,4.15
2023-04-02T11:09:48.467Z,4.10
2023-04-02T11:12:49.160Z,4.47
2023-04-02T11:15:19.889Z,3.97
2023-04-02T11:17:47.464Z,4.78
2023-04-02T11:20:43.813Z,4.47
2023-04-02T11:23:18.390Z,4.30
2023-04-02T11:25:47.119Z,4.30
2023-04-02T11:28:30.511Z,4.13
2023-04-02T11:30:58.637Z,4.18
2023-04-02T11:33:44.610Z,4.35
2023-04-02T11:36:50.345Z,4.07
2023-04-02T11:39:46.777Z,4.38
2023-04-02T11:42:19.487Z,3.72
2023-04-02T11:44:46.403Z,4.05
2023-04-02T11:47:21.737Z,3.95
2023-04-02T11:50:04.390Z,3.90
2023-04-02T11:52:49.471Z,4.13
2023-04-02T11:55:35.385Z,3.88
2023-04-02T11:58:22.792Z,3.28
2023-04-02T12:01:08.395Z,4.07
2023-04-02T12:04:00.792Z,4.45
2023-04-02T12:06:47.222Z,3.60
2023-04-02T12:09:24.803Z,3.50
2023-04-02T12:12:16.442Z,3.45
2023-04-02T12:14:47.144Z,3.30
2023-04-02T12:17:34.111Z,3.75
2023-04-02T12:20:20.480Z,4.13
2023-04-02T12:22:54.080Z,4.25
2023-04-02T12:25:40.205Z,3.80
2023-04-02T12:28:09.841Z,3.45
2023-04-02T12:30:38.574Z,3.92
2023-04-02T12:33:28.533Z,3.90
2023-04-02T12:36:06.896Z,3.75
2023-04-02T12:38:39.350Z,3.88
2023-04-02T12:41:24.529Z,3.53
2023-04-02T12:44:03.511Z,3.70
2023-04-02T12:46:32.883Z,3.13
2023-04-02T12:49:26.356Z,4.03
2023-04-02T12:51:54.548Z,4.70
2023-04-02T12:54:21.838Z,3.40
2023-04-02T12:56:52.627Z,3.50
2023-04-02T12:59:43.937Z,3.65
2023-04-02T13:02:44.761Z,3.50
2023-04-02T13:05:12.370Z,3.83
2023-04-02T13:07:41.963Z,3.90
2023-04-02T13:10:27.452Z,3.60
2023-04-02T13:13:02.377Z,3.58
2023-04-02T13:15:32.053Z,3.40
2023-04-02T13:18:17.598Z,3.42
2023-04-02T13:20:56.764Z,3.25
2023-04-02T13:23:29.660Z,2.95
2023-04-02T13:25:58.678Z,3.38
2023-04-02T13:28:25.967Z,3.30
2023-04-02T13:30:52.925Z,3.28
2023-04-02T13:33:20.490Z,3.55
2023-04-02T13:35:47.717Z,3.42
2023-04-02T13:38:14.582Z,3.47
2023-04-02T13:40:41.435Z,3.20
2023-04-02T13:43:13.292Z,3.65
2023-04-02T13:45:42.002Z,3.60
2023-04-02T13:48:14.118Z,3.70
2023-04-02T13:50:41.765Z,3.28
2023-04-02T13:53:19.256Z,3.10
2023-04-02T13:55:46.241Z,3.30
2023-04-02T13:58:13.073Z,2.92
2023-04-02T14:00:41.088Z,3.17
2023-04-02T14:03:16.501Z,3.20
2023-04-02T14:05:58.111Z,3.30
2023-04-02T14:09:02.678Z,3.28
2023-04-02T14:11:29.472Z,3.10
2023-04-02T14:14:27.626Z,2.80
2023-04-02T14:16:57.534Z,3.10
2023-04-02T14:19:52.103Z,3.20
2023-04-02T14:22:37.264Z,2.90
2023-04-02T14:25:07.737Z,3.45
2023-04-02T14:27:44.929Z,3.13
2023-04-02T14:30:26.152Z,2.83
2023-04-02T14:33:05.143Z,2.70
2023-04-02T14:35:46.424Z,3.10
2023-04-02T14:38:16.439Z,2.80
2023-04-02T14:41:11.563Z,3.15
2023-04-02T14:44:06.999Z,3.05
2023-04-02T14:46:37.707Z,3.10
2023-04-02T14:49:25.070Z,3.20
2023-04-02T14:51:59.686Z,3.38
2023-04-02T14:54:54.574Z,2.85
2023-04-02T14:57:24.959Z,3.60
2023-04-02T15:00:26.066Z,3.25
2023-04-02T15:02:59.083Z,3.03
2023-04-02T15:05:49.134Z,2.90
2023-04-02T15:08:24.153Z,3.50
2023-04-02T15:11:10.368Z,3.40
2023-04-02T15:13:43.042Z,3.35
2023-04-02T15:16:20.648Z,3.05
2023-04-02T15:19:00.927Z,3.08
2023-04-02T15:21:57.595Z,3.25
2023-04-02T15:24:32.399Z,3.20
2023-04-02T15:27:30.332Z,3.35
2023-04-02T15:29:57.192Z,3.83
2023-04-02T15:32:33.017Z,3.50
2023-04-02T15:35:06.577Z,3.70
2023-04-02T15:37:46.507Z,3.50
2023-04-02T15:40:31.576Z,3.63
2023-04-02T15:43:45.995Z,3.17
2023-04-02T15:46:25.876Z,2.95
2023-04-02T15:49:07.503Z,3.20
2023-04-02T15:52:01.406Z,3.25
2023-04-02T15:54:40.009Z,3.55
2023-04-02T15:57:25.662Z,3.72
2023-04-02T16:00:19.621Z,2.78
2023-04-02T16:03:02.672Z,3.38
2023-04-02T16:06:17.251Z,2.72
2023-04-02T16:09:05.450Z,2.88
2023-04-02T16:11:33.643Z,2.80
2023-04-02T16:14:24.456Z,3.25
2023-04-02T16:16:53.160Z,3.35
2023-04-02T16:19:32.481Z,2.85
2023-04-02T16:22:22.384Z,3.40
2023-04-02T16:24:59.931Z,2.40
2023-04-02T16:27:38.240Z,2.70
2023-04-02T16:30:23.598Z,2.50
2023-04-02T16:33:18.259Z,2.63
2023-04-02T16:36:07.279Z,2.53
2023-04-02T16:38:55.299Z,2.40
2023-04-02T16:41:59.984Z,2.28
2023-04-02T16:44:52.102Z,2.20
2023-04-02T16:47:42.493Z,2.50
2023-04-02T16:50:24.494Z,2.65
2023-04-02T16:53:17.613Z,2.65
2023-04-02T16:56:19.099Z,2.75
2023-04-02T16:58:57.951Z,2.58
2023-04-02T17:01:39.626Z,2.47
2023-04-02T17:04:15.112Z,2.65
2023-04-02T17:06:44.380Z,2.45
2023-04-02T17:09:15.878Z,2.83
2023-04-02T17:11:50.261Z,3.10
2023-04-02T17:14:17.104Z,3.90
2023-04-02T17:16:51.208Z,3.63
2023-04-02T17:19:20.833Z,5.10
2023-04-02T17:21:51.997Z,5.60
2023-04-02T17:24:33.969Z,6.00
2023-04-02T17:27:22.079Z,6.97
2023-04-02T17:29:53.226Z,6.57
2023-04-02T17:32:32.678Z,6.32
2023-04-02T17:35:21.755Z,6.40
2023-04-02T17:37:58.164Z,6.43
2023-04-02T17:40:40.518Z,5.72
2023-04-02T17:43:36.595Z,5.50
2023-04-02T17:46:23.870Z,5.38
2023-04-02T17:49:20.051Z,5.80
2023-04-02T17:52:00.676Z,5.35
2023-04-02T17:54:58.609Z,6.28
2023-04-02T17:57:35.409Z,6.25
2023-04-02T18:00:29.737Z,5.82
2023-04-02T18:03:21.408Z,6.32
2023-04-02T18:05:56.539Z,5.45
2023-04-02T18:08:35.534Z,5.65
2023-04-02T18:11:12.736Z,5.70
2023-04-02T18:14:01.090Z,5.80
2023-04-02T18:16:34.012Z,5.50
2023-04-02T18:19:15.507Z,5.53
2023-04-02T18:21:46.690Z,5.47
2023-04-02T18:24:32.607Z,5.88
2023-04-02T18:27:33.198Z,5.15
2023-04-02T18:30:21.425Z,5.10
2023-04-02T18:33:11.262Z,5.70
2023-04-02T18:35:55.315Z,5.13
2023-04-02T18:38:29.375Z,4.80
2023-04-02T18:41:04.736Z,4.85
2023-04-02T18:43:50.556Z,5.60
2023-04-02T18:46:31.349Z,4.78
2023-04-02T18:49:07.516Z,5.22
2023-04-02T18:51:38.508Z,6.78
2023-04-02T18:54:14.188Z,6.60
2023-04-02T18:56:42.043Z,6.88
2023-04-02T18:59:28.000Z,5.90
2023-04-02T19:01:56.245Z,6.10
2023-04-02T19:04:30.385Z,5.88
2023-04-02T19:07:14.200Z,5.47
2023-04-02T19:09:44.241Z,5.30
2023-04-02T19:12:18.482Z,5.57
2023-04-02T19:14:49.716Z,6.28
2023-04-02T19:17:39.462Z,6.35
2023-04-02T19:20:37.745Z,5.55
2023-04-02T19:23:23.310Z,5.80
2023-04-02T19:25:58.909Z,7.40
2023-04-02T19:28:34.180Z,9.10
2023-04-02T19:31:31.864Z,6.25
2023-04-02T19:34:26.512Z,6.90
2023-04-02T19:37:02.423Z,9.38
2023-04-02T19:39:52.180Z,9.05
2023-04-02T19:42:48.265Z,8.85
2023-04-02T19:45:42.972Z,6.80
2023-04-02T19:48:14.448Z,7.10
2023-04-02T19:50:41.677Z,7.38
2023-04-02T19:53:08.623Z,7.38
2023-04-02T19:55:35.990Z,6.20
2023-04-02T19:58:17.363Z,6.07
2023-04-02T20:00:46.171Z,6.40
2023-04-02T20:03:13.111Z,6.78
2023-04-02T20:05:40.052Z,6.03
2023-04-02T20:08:06.926Z,6.25
2023-04-02T20:10:33.798Z,9.65
2023-04-02T20:13:00.664Z,7.55
2023-04-02T20:15:27.906Z,8.13
2023-04-02T20:17:54.786Z,8.75
2023-04-02T20:20:21.655Z,10.15
2023-04-02T20:22:48.629Z,10.25
2023-04-02T20:25:16.055Z,9.50
2023-04-02T20:27:43.056Z,11.20
2023-04-02T20:30:10.561Z,9.30
2023-04-02T20:32:38.126Z,8.90
2023-04-02T20:35:06.075Z,9.60
2023-04-02T20:37:33.261Z,11.18
2023-04-02T20:40:00.668Z,11.07
2023-04-02T20:42:28.080Z,7.90
2023-04-02T20:44:54.938Z,8.57
2023-04-02T20:47:22.097Z,7.43
2023-04-02T20:49:50.364Z,7.47
2023-04-02T20:52:17.318Z,6.68
2023-04-02T20:54:44.252Z,6.45
2023-04-02T20:57:11.166Z,7.30
2023-04-02T20:59:38.092Z,7.00
2023-04-02T21:02:04.976Z,6.53
2023-04-02T21:04:31.951Z,7.80
2023-04-02T21:06:58.969Z,7.40
2023-04-02T21:09:25.914Z,7.78
2023-04-02T21:11:53.054Z,7.93
2023-04-02T21:14:20.492Z,7.45
2023-04-02T21:16:47.710Z,7.88
2023-04-02T21:19:14.881Z,7.78
2023-04-02T21:21:44.360Z,7.72
2023-04-02T21:24:12.084Z,7.35
2023-04-02T21:26:41.255Z,7.13
2023-04-02T21:29:08.895Z,7.53
2023-04-02T21:31:38.749Z,7.90
2023-04-02T21:34:07.411Z,7.18
2023-04-02T21:36:37.290Z,7.90
2023-04-02T21:39:10.705Z,7.88
2023-04-02T21:41:43.291Z,7.60
2023-04-02T21:44:14.902Z,7.78
2023-04-02T21:46:43.300Z,7.63
2023-04-02T21:49:16.949Z,7.70
2023-04-02T21:51:46.839Z,7.85
2023-04-02T21:54:14.878Z,7.60
2023-04-02T21:56:44.450Z,8.77
2023-04-02T21:59:13.535Z,8.52
2023-04-02T22:01:44.072Z,8.35
2023-04-02T22:04:20.367Z,8.43
2023-04-02T22:06:48.729Z,8.20
2023-04-02T22:09:19.576Z,9.05
2023-04-02T22:11:54.665Z,8.10
2023-04-02T22:14:23.446Z,8.48
2023-04-02T22:16:52.395Z,8.32
2023-04-02T22:19:20.101Z,8.63
2023-04-02T22:21:47.734Z,8.82
2023-04-02T22:24:19.091Z,8.60
2023-04-02T22:26:47.040Z,8.95
2023-04-02T22:29:15.987Z,8.40
2023-04-02T22:31:43.524Z,8.73
2023-04-02T22:34:11.301Z,9.10
2023-04-02T22:36:38.590Z,8.30
2023-04-02T22:39:09.586Z,9.50
2023-04-02T22:41:36.729Z,9.23
2023-04-02T22:44:03.882Z,8.85
2023-04-02T22:46:31.585Z,9.00
2023-04-02T22:48:59.014Z,9.35
2023-04-02T22:51:27.954Z,9.15
2023-04-02T22:53:56.131Z,9.00
2023-04-02T22:56:31.677Z,8.70
2023-04-02T22:58:58.759Z,8.63
2023-04-02T23:01:30.141Z,8.48
2023-04-02T23:03:57.387Z,8.38
2023-04-02T23:06:25.514Z,8.82
2023-04-02T23:08:52.972Z,8.40
2023-04-02T23:11:25.982Z,8.82
2023-04-02T23:13:54.634Z,8.32
2023-04-02T23:16:22.872Z,8.13
2023-04-02T23:18:51.070Z,8.38
2023-04-02T23:21:19.915Z,8.30
2023-04-02T23:23:48.126Z,7.72
2023-04-02T23:26:42.926Z,8.68
2023-04-02T23:29:12.667Z,9.18
2023-04-02T23:31:39.691Z,8.10
2023-04-02T23:34:07.211Z,8.55
2023-04-02T23:36:37.888Z,8.13
2023-04-02T23:39:09.551Z,8.27
2023-04-02T23:41:38.813Z,9.23
2023-04-02T23:44:06.070Z,8.65
2023-04-02T23:46:33.874Z,8.40
2023-04-02T23:52:16.652Z,7.95
2023-04-02T23:54:43.517Z,9.05
2023-04-02T23:57:10.504Z,8.60
2023-04-02T23:59:37.610Z,9.25
